sensor_id;sensor_type;location;lat;lon;timestamp;P1;durP1;ratioP1;P2;durP2;ratioP2
60416;SDS011;46263;44.726;10.396;2022-11-15T00:01:35;21.13;;;12.98;;
60416;SDS011;46263;44.726;10.396;2022-11-15T00:04:05;18.67;;;12.55;;
60416;SDS011;46263;44.726;10.396;2022-11-15T00:06:30;19.45;;;14.13;;
60416;SDS011;46263;44.726;10.396;2022-11-15T00:09:00;18.90;;;13.00;;
60416;SDS011;46263;44.726;10.396;2022-11-15T00:11:26;19.58;;;13.70;;
60416;SDS011;46263;44.726;10.396;2022-11-15T00:13:54;21.80;;;14.68;;
60416;SDS011;46263;44.726;10.396;2022-11-15T00:16:21;21.83;;;14.98;;
60416;SDS011;46263;44.726;10.396;2022-11-15T00:18:46;22.45;;;14.75;;
60416;SDS011;46263;44.726;10.396;2022-11-15T00:21:12;23.17;;;15.68;;
60416;SDS011;46263;44.726;10.396;2022-11-15T00:23:38;23.90;;;15.63;;
60416;SDS011;46263;44.726;10.396;2022-11-15T00:26:04;22.85;;;15.70;;
60416;SDS011;46263;44.726;10.396;2022-11-15T00:28:30;26.13;;;15.93;;
60416;SDS011;46263;44.726;10.396;2022-11-15T00:31:02;22.98;;;15.98;;
60416;SDS011;46263;44.726;10.396;2022-11-15T00:33:30;22.85;;;16.52;;
60416;SDS011;46263;44.726;10.396;2022-11-15T00:36:02;24.33;;;15.75;;
60416;SDS011;46263;44.726;10.396;2022-11-15T00:38:33;24.48;;;16.13;;
60416;SDS011;46263;44.726;10.396;2022-11-15T00:40:59;23.45;;;16.50;;
60416;SDS011;46263;44.726;10.396;2022-11-15T00:43:26;22.10;;;15.95;;
60416;SDS011;46263;44.726;10.396;2022-11-15T00:45:51;23.40;;;15.52;;
60416;SDS011;46263;44.726;10.396;2022-11-15T00:48:17;22.92;;;15.10;;
60416;SDS011;46263;44.726;10.396;2022-11-15T00:50:42;22.55;;;15.45;;
60416;SDS011;46263;44.726;10.396;2022-11-15T00:53:08;22.55;;;14.90;;
60416;SDS011;46263;44.726;10.396;2022-11-15T00:55:33;22.67;;;13.68;;
60416;SDS011;46263;44.726;10.396;2022-11-15T00:57:59;22.70;;;14.00;;
60416;SDS011;46263;44.726;10.396;2022-11-15T01:00:24;20.42;;;13.23;;
60416;SDS011;46263;44.726;10.396;2022-11-15T01:02:49;20.02;;;15.27;;
60416;SDS011;46263;44.726;10.396;2022-11-15T01:05:15;21.02;;;14.90;;
60416;SDS011;46263;44.726;10.396;2022-11-15T01:07:40;20.98;;;15.38;;
60416;SDS011;46263;44.726;10.396;2022-11-15T01:10:06;19.90;;;14.07;;
60416;SDS011;46263;44.726;10.396;2022-11-15T01:12:32;20.20;;;14.80;;
60416;SDS011;46263;44.726;10.396;2022-11-15T01:14:58;22.23;;;14.73;;
60416;SDS011;46263;44.726;10.396;2022-11-15T01:17:23;19.25;;;13.93;;
60416;SDS011;46263;44.726;10.396;2022-11-15T01:19:49;21.23;;;15.18;;
60416;SDS011;46263;44.726;10.396;2022-11-15T01:22:14;20.95;;;14.57;;
60416;SDS011;46263;44.726;10.396;2022-11-15T01:24:40;22.90;;;15.65;;
60416;SDS011;46263;44.726;10.396;2022-11-15T01:27:06;20.05;;;13.73;;
60416;SDS011;46263;44.726;10.396;2022-11-15T01:29:31;19.42;;;13.82;;
60416;SDS011;46263;44.726;10.396;2022-11-15T01:31:57;20.55;;;13.77;;
60416;SDS011;46263;44.726;10.396;2022-11-15T01:34:23;20.70;;;12.77;;
60416;SDS011;46263;44.726;10.396;2022-11-15T01:36:48;19.60;;;12.73;;
60416;SDS011;46263;44.726;10.396;2022-11-15T01:39:13;21.33;;;13.23;;
60416;SDS011;46263;44.726;10.396;2022-11-15T01:41:40;17.25;;;11.85;;
60416;SDS011;46263;44.726;10.396;2022-11-15T01:47:03;19.65;;;13.10;;
60416;SDS011;46263;44.726;10.396;2022-11-15T01:49:34;15.82;;;11.73;;
60416;SDS011;46263;44.726;10.396;2022-11-15T01:52:03;16.98;;;11.48;;
60416;SDS011;46263;44.726;10.396;2022-11-15T01:54:33;19.25;;;12.27;;
60416;SDS011;46263;44.726;10.396;2022-11-15T01:57:00;17.42;;;12.07;;
60416;SDS011;46263;44.726;10.396;2022-11-15T01:59:29;17.95;;;12.00;;
60416;SDS011;46263;44.726;10.396;2022-11-15T02:01:55;20.42;;;12.35;;
60416;SDS011;46263;44.726;10.396;2022-11-15T02:04:28;17.85;;;12.98;;
60416;SDS011;46263;44.726;10.396;2022-11-15T02:06:56;17.10;;;12.02;;
60416;SDS011;46263;44.726;10.396;2022-11-15T02:09:22;20.23;;;13.05;;
60416;SDS011;46263;44.726;10.396;2022-11-15T02:11:47;21.83;;;13.68;;
60416;SDS011;46263;44.726;10.396;2022-11-15T02:14:15;21.58;;;13.48;;
60416;SDS011;46263;44.726;10.396;2022-11-15T02:16:49;21.10;;;13.20;;
60416;SDS011;46263;44.726;10.396;2022-11-15T02:30:19;23.20;;;13.93;;
60416;SDS011;46263;44.726;10.396;2022-11-15T02:32:45;24.90;;;16.33;;
60416;SDS011;46263;44.726;10.396;2022-11-15T02:40:55;24.15;;;15.32;;
60416;SDS011;46263;44.726;10.396;2022-11-15T02:43:28;24.02;;;16.38;;
60416;SDS011;46263;44.726;10.396;2022-11-15T02:49:12;22.05;;;15.18;;
60416;SDS011;46263;44.726;10.396;2022-11-15T02:51:39;25.17;;;16.48;;
60416;SDS011;46263;44.726;10.396;2022-11-15T02:54:06;25.77;;;16.15;;
60416;SDS011;46263;44.726;10.396;2022-11-15T02:56:35;24.70;;;16.38;;
60416;SDS011;46263;44.726;10.396;2022-11-15T02:59:13;27.15;;;16.02;;
60416;SDS011;46263;44.726;10.396;2022-11-15T03:02:01;28.77;;;15.65;;
60416;SDS011;46263;44.726;10.396;2022-11-15T03:04:43;25.08;;;15.45;;
60416;SDS011;46263;44.726;10.396;2022-11-15T03:07:35;27.35;;;17.23;;
60416;SDS011;46263;44.726;10.396;2022-11-15T03:12:45;22.85;;;15.38;;
60416;SDS011;46263;44.726;10.396;2022-11-15T03:15:17;24.55;;;15.25;;
60416;SDS011;46263;44.726;10.396;2022-11-15T03:20:17;24.25;;;14.55;;
60416;SDS011;46263;44.726;10.396;2022-11-15T03:22:44;21.38;;;13.85;;
60416;SDS011;46263;44.726;10.396;2022-11-15T03:25:15;22.08;;;14.32;;
60416;SDS011;46263;44.726;10.396;2022-11-15T03:27:46;19.00;;;13.07;;
60416;SDS011;46263;44.726;10.396;2022-11-15T03:30:16;19.13;;;13.52;;
60416;SDS011;46263;44.726;10.396;2022-11-15T03:32:53;19.23;;;12.75;;
60416;SDS011;46263;44.726;10.396;2022-11-15T03:35:22;20.10;;;12.85;;
60416;SDS011;46263;44.726;10.396;2022-11-15T03:37:51;18.02;;;12.70;;
60416;SDS011;46263;44.726;10.396;2022-11-15T03:40:22;19.58;;;12.50;;
60416;SDS011;46263;44.726;10.396;2022-11-15T03:45:43;16.88;;;11.35;;
60416;SDS011;46263;44.726;10.396;2022-11-15T03:48:15;16.02;;;11.38;;
60416;SDS011;46263;44.726;10.396;2022-11-15T03:50:46;18.00;;;11.55;;
60416;SDS011;46263;44.726;10.396;2022-11-15T03:53:13;16.35;;;10.52;;
60416;SDS011;46263;44.726;10.396;2022-11-15T03:55:39;14.25;;;10.10;;
60416;SDS011;46263;44.726;10.396;2022-11-15T03:58:04;16.65;;;11.10;;
60416;SDS011;46263;44.726;10.396;2022-11-15T04:00:30;14.25;;;10.35;;
60416;SDS011;46263;44.726;10.396;2022-11-15T04:02:56;13.95;;;9.68;;
60416;SDS011;46263;44.726;10.396;2022-11-15T04:05:21;15.95;;;10.43;;
60416;SDS011;46263;44.726;10.396;2022-11-15T04:07:47;18.48;;;10.85;;
60416;SDS011;46263;44.726;10.396;2022-11-15T04:10:12;15.27;;;10.10;;
60416;SDS011;46263;44.726;10.396;2022-11-15T04:12:39;15.55;;;10.30;;
60416;SDS011;46263;44.726;10.396;2022-11-15T04:17:34;14.48;;;10.18;;
60416;SDS011;46263;44.726;10.396;2022-11-15T04:20:05;15.63;;;10.50;;
60416;SDS011;46263;44.726;10.396;2022-11-15T04:22:58;15.73;;;9.93;;
60416;SDS011;46263;44.726;10.396;2022-11-15T04:25:43;16.77;;;11.35;;
60416;SDS011;46263;44.726;10.396;2022-11-15T04:28:09;17.90;;;12.13;;
60416;SDS011;46263;44.726;10.396;2022-11-15T04:30:36;18.60;;;12.18;;
60416;SDS011;46263;44.726;10.396;2022-11-15T04:33:01;19.70;;;12.85;;
60416;SDS011;46263;44.726;10.396;2022-11-15T04:35:27;21.85;;;13.88;;
60416;SDS011;46263;44.726;10.396;2022-11-15T04:37:52;23.17;;;14.10;;
60416;SDS011;46263;44.726;10.396;2022-11-15T04:40:19;20.95;;;13.43;;
60416;SDS011;46263;44.726;10.396;2022-11-15T04:42:44;19.60;;;12.90;;
60416;SDS011;46263;44.726;10.396;2022-11-15T04:45:10;18.70;;;12.35;;
60416;SDS011;46263;44.726;10.396;2022-11-15T04:47:35;16.90;;;11.23;;
60416;SDS011;46263;44.726;10.396;2022-11-15T04:50:01;16.30;;;11.68;;
60416;SDS011;46263;44.726;10.396;2022-11-15T04:52:27;16.92;;;11.02;;
60416;SDS011;46263;44.726;10.396;2022-11-15T04:54:52;17.80;;;11.25;;
60416;SDS011;46263;44.726;10.396;2022-11-15T04:57:17;15.63;;;11.45;;
60416;SDS011;46263;44.726;10.396;2022-11-15T04:59:43;16.20;;;11.05;;
60416;SDS011;46263;44.726;10.396;2022-11-15T05:02:08;16.42;;;10.95;;
60416;SDS011;46263;44.726;10.396;2022-11-15T05:04:34;17.10;;;11.50;;
60416;SDS011;46263;44.726;10.396;2022-11-15T05:06:59;15.60;;;10.52;;
60416;SDS011;46263;44.726;10.396;2022-11-15T05:09:25;18.02;;;11.00;;
60416;SDS011;46263;44.726;10.396;2022-11-15T05:11:50;16.95;;;10.80;;
60416;SDS011;46263;44.726;10.396;2022-11-15T05:14:16;19.45;;;11.07;;
60416;SDS011;46263;44.726;10.396;2022-11-15T05:16:41;16.75;;;10.27;;
60416;SDS011;46263;44.726;10.396;2022-11-15T05:19:07;17.92;;;11.20;;
60416;SDS011;46263;44.726;10.396;2022-11-15T05:21:33;19.77;;;11.73;;
60416;SDS011;46263;44.726;10.396;2022-11-15T05:23:59;17.33;;;11.27;;
60416;SDS011;46263;44.726;10.396;2022-11-15T05:26:25;17.05;;;11.63;;
60416;SDS011;46263;44.726;10.396;2022-11-15T05:28:54;21.05;;;12.13;;
60416;SDS011;46263;44.726;10.396;2022-11-15T05:31:21;18.08;;;12.13;;
60416;SDS011;46263;44.726;10.396;2022-11-15T05:33:47;20.58;;;13.35;;
60416;SDS011;46263;44.726;10.396;2022-11-15T05:38:43;22.05;;;13.85;;
60416;SDS011;46263;44.726;10.396;2022-11-15T05:41:09;24.50;;;14.10;;
60416;SDS011;46263;44.726;10.396;2022-11-15T05:43:35;21.88;;;14.38;;
60416;SDS011;46263;44.726;10.396;2022-11-15T05:46:03;20.80;;;13.68;;
60416;SDS011;46263;44.726;10.396;2022-11-15T05:48:30;21.17;;;14.18;;
60416;SDS011;46263;44.726;10.396;2022-11-15T05:50:56;20.63;;;14.02;;
60416;SDS011;46263;44.726;10.396;2022-11-15T05:53:23;23.10;;;15.35;;
60416;SDS011;46263;44.726;10.396;2022-11-15T05:55:50;20.73;;;14.05;;
60416;SDS011;46263;44.726;10.396;2022-11-15T05:58:16;21.88;;;14.95;;
60416;SDS011;46263;44.726;10.396;2022-11-15T06:00:43;24.67;;;15.40;;
60416;SDS011;46263;44.726;10.396;2022-11-15T06:03:09;24.42;;;15.35;;
60416;SDS011;46263;44.726;10.396;2022-11-15T06:05:34;23.10;;;14.95;;
60416;SDS011;46263;44.726;10.396;2022-11-15T06:08:00;22.60;;;14.60;;
60416;SDS011;46263;44.726;10.396;2022-11-15T06:10:25;22.70;;;14.43;;
60416;SDS011;46263;44.726;10.396;2022-11-15T06:12:57;19.55;;;14.80;;
60416;SDS011;46263;44.726;10.396;2022-11-15T06:15:27;23.23;;;15.50;;
60416;SDS011;46263;44.726;10.396;2022-11-15T06:17:55;24.58;;;14.90;;
60416;SDS011;46263;44.726;10.396;2022-11-15T06:20:23;23.73;;;14.75;;
60416;SDS011;46263;44.726;10.396;2022-11-15T06:22:49;20.73;;;13.70;;
60416;SDS011;46263;44.726;10.396;2022-11-15T06:25:14;20.40;;;13.48;;
60416;SDS011;46263;44.726;10.396;2022-11-15T06:27:40;21.70;;;13.50;;
60416;SDS011;46263;44.726;10.396;2022-11-15T06:30:05;20.58;;;13.07;;
60416;SDS011;46263;44.726;10.396;2022-11-15T06:32:31;20.77;;;13.30;;
60416;SDS011;46263;44.726;10.396;2022-11-15T06:34:57;19.83;;;12.73;;
60416;SDS011;46263;44.726;10.396;2022-11-15T06:37:22;22.38;;;13.52;;
60416;SDS011;46263;44.726;10.396;2022-11-15T06:39:47;21.17;;;13.68;;
60416;SDS011;46263;44.726;10.396;2022-11-15T06:42:13;18.65;;;12.98;;
60416;SDS011;46263;44.726;10.396;2022-11-15T06:44:38;22.52;;;14.10;;
60416;SDS011;46263;44.726;10.396;2022-11-15T06:47:04;20.20;;;13.77;;
60416;SDS011;46263;44.726;10.396;2022-11-15T06:49:29;24.65;;;14.35;;
60416;SDS011;46263;44.726;10.396;2022-11-15T06:51:54;23.50;;;14.15;;
60416;SDS011;46263;44.726;10.396;2022-11-15T06:54:20;19.90;;;13.95;;
60416;SDS011;46263;44.726;10.396;2022-11-15T06:56:46;23.77;;;14.15;;
60416;SDS011;46263;44.726;10.396;2022-11-15T06:59:11;23.58;;;13.98;;
60416;SDS011;46263;44.726;10.396;2022-11-15T07:01:36;22.42;;;13.95;;
60416;SDS011;46263;44.726;10.396;2022-11-15T07:04:02;19.52;;;13.65;;
60416;SDS011;46263;44.726;10.396;2022-11-15T07:06:27;20.98;;;14.77;;
60416;SDS011;46263;44.726;10.396;2022-11-15T07:08:53;22.30;;;13.98;;
60416;SDS011;46263;44.726;10.396;2022-11-15T07:11:18;22.50;;;14.77;;
60416;SDS011;46263;44.726;10.396;2022-11-15T07:13:44;23.90;;;13.65;;
60416;SDS011;46263;44.726;10.396;2022-11-15T07:16:09;21.77;;;14.02;;
60416;SDS011;46263;44.726;10.396;2022-11-15T07:18:36;24.98;;;14.25;;
60416;SDS011;46263;44.726;10.396;2022-11-15T07:21:04;22.05;;;14.32;;
60416;SDS011;46263;44.726;10.396;2022-11-15T07:23:31;22.67;;;13.88;;
60416;SDS011;46263;44.726;10.396;2022-11-15T07:25:59;24.05;;;14.75;;
60416;SDS011;46263;44.726;10.396;2022-11-15T07:28:25;25.23;;;14.55;;
60416;SDS011;46263;44.726;10.396;2022-11-15T07:30:51;23.30;;;13.52;;
60416;SDS011;46263;44.726;10.396;2022-11-15T07:33:17;21.60;;;13.70;;
60416;SDS011;46263;44.726;10.396;2022-11-15T07:35:42;24.10;;;14.55;;
60416;SDS011;46263;44.726;10.396;2022-11-15T07:38:08;24.65;;;15.23;;
60416;SDS011;46263;44.726;10.396;2022-11-15T07:40:33;22.25;;;15.23;;
60416;SDS011;46263;44.726;10.396;2022-11-15T07:43:03;23.38;;;14.13;;
60416;SDS011;46263;44.726;10.396;2022-11-15T07:45:30;26.27;;;14.48;;
60416;SDS011;46263;44.726;10.396;2022-11-15T07:47:58;30.02;;;14.60;;
60416;SDS011;46263;44.726;10.396;2022-11-15T07:50:24;22.20;;;14.57;;
60416;SDS011;46263;44.726;10.396;2022-11-15T07:52:54;24.60;;;15.02;;
60416;SDS011;46263;44.726;10.396;2022-11-15T07:55:21;21.45;;;13.70;;
60416;SDS011;46263;44.726;10.396;2022-11-15T07:57:47;22.17;;;13.55;;
60416;SDS011;46263;44.726;10.396;2022-11-15T08:00:13;26.15;;;15.20;;
60416;SDS011;46263;44.726;10.396;2022-11-15T08:02:39;24.20;;;14.48;;
60416;SDS011;46263;44.726;10.396;2022-11-15T08:05:04;21.27;;;13.52;;
60416;SDS011;46263;44.726;10.396;2022-11-15T08:07:30;21.80;;;13.48;;
60416;SDS011;46263;44.726;10.396;2022-11-15T08:09:56;26.92;;;14.57;;
60416;SDS011;46263;44.726;10.396;2022-11-15T08:12:22;24.10;;;14.40;;
60416;SDS011;46263;44.726;10.396;2022-11-15T08:14:47;22.15;;;13.50;;
60416;SDS011;46263;44.726;10.396;2022-11-15T08:17:13;22.20;;;14.02;;
60416;SDS011;46263;44.726;10.396;2022-11-15T08:19:39;24.40;;;15.45;;
60416;SDS011;46263;44.726;10.396;2022-11-15T08:22:04;22.10;;;13.98;;
60416;SDS011;46263;44.726;10.396;2022-11-15T08:24:30;21.95;;;14.93;;
60416;SDS011;46263;44.726;10.396;2022-11-15T08:26:55;25.30;;;15.75;;
60416;SDS011;46263;44.726;10.396;2022-11-15T08:29:21;24.60;;;14.73;;
60416;SDS011;46263;44.726;10.396;2022-11-15T08:31:46;21.15;;;13.05;;
60416;SDS011;46263;44.726;10.396;2022-11-15T08:34:12;21.70;;;14.65;;
60416;SDS011;46263;44.726;10.396;2022-11-15T08:36:37;23.80;;;14.30;;
60416;SDS011;46263;44.726;10.396;2022-11-15T08:39:02;21.95;;;13.75;;
60416;SDS011;46263;44.726;10.396;2022-11-15T08:41:30;21.35;;;13.75;;
60416;SDS011;46263;44.726;10.396;2022-11-15T08:43:57;21.65;;;14.40;;
60416;SDS011;46263;44.726;10.396;2022-11-15T08:46:23;24.80;;;15.27;;
60416;SDS011;46263;44.726;10.396;2022-11-15T08:48:48;21.98;;;13.57;;
60416;SDS011;46263;44.726;10.396;2022-11-15T08:51:14;22.38;;;14.57;;
60416;SDS011;46263;44.726;10.396;2022-11-15T08:53:40;23.13;;;15.40;;
60416;SDS011;46263;44.726;10.396;2022-11-15T08:56:09;22.98;;;15.65;;
60416;SDS011;46263;44.726;10.396;2022-11-15T08:58:36;26.65;;;16.50;;
60416;SDS011;46263;44.726;10.396;2022-11-15T09:01:01;23.52;;;15.15;;
60416;SDS011;46263;44.726;10.396;2022-11-15T09:03:28;24.60;;;15.88;;
60416;SDS011;46263;44.726;10.396;2022-11-15T09:05:57;23.42;;;15.65;;
60416;SDS011;46263;44.726;10.396;2022-11-15T09:08:24;27.65;;;16.48;;
60416;SDS011;46263;44.726;10.396;2022-11-15T09:10:50;27.27;;;17.90;;
60416;SDS011;46263;44.726;10.396;2022-11-15T09:13:16;24.67;;;16.15;;
60416;SDS011;46263;44.726;10.396;2022-11-15T09:15:42;29.83;;;16.52;;
60416;SDS011;46263;44.726;10.396;2022-11-15T09:18:08;24.92;;;16.27;;
60416;SDS011;46263;44.726;10.396;2022-11-15T09:20:33;24.17;;;15.93;;
60416;SDS011;46263;44.726;10.396;2022-11-15T09:22:59;23.15;;;15.45;;
60416;SDS011;46263;44.726;10.396;2022-11-15T09:25:26;26.95;;;16.90;;
60416;SDS011;46263;44.726;10.396;2022-11-15T09:27:52;29.95;;;16.60;;
60416;SDS011;46263;44.726;10.396;2022-11-15T09:30:17;27.17;;;15.95;;
60416;SDS011;46263;44.726;10.396;2022-11-15T09:32:43;28.25;;;17.17;;
60416;SDS011;46263;44.726;10.396;2022-11-15T09:35:08;28.10;;;18.20;;
60416;SDS011;46263;44.726;10.396;2022-11-15T09:37:34;30.55;;;19.70;;
60416;SDS011;46263;44.726;10.396;2022-11-15T09:39:59;29.23;;;18.02;;
60416;SDS011;46263;44.726;10.396;2022-11-15T09:45:34;33.65;;;19.50;;
60416;SDS011;46263;44.726;10.396;2022-11-15T09:50:48;33.80;;;20.30;;
60416;SDS011;46263;44.726;10.396;2022-11-15T09:53:24;32.75;;;20.85;;
60416;SDS011;46263;44.726;10.396;2022-11-15T09:56:42;34.37;;;21.67;;
60416;SDS011;46263;44.726;10.396;2022-11-15T09:59:12;36.33;;;22.65;;
60416;SDS011;46263;44.726;10.396;2022-11-15T10:04:23;32.53;;;21.17;;
60416;SDS011;46263;44.726;10.396;2022-11-15T10:09:56;38.00;;;22.42;;
60416;SDS011;46263;44.726;10.396;2022-11-15T10:12:34;35.95;;;21.90;;
60416;SDS011;46263;44.726;10.396;2022-11-15T10:15:05;38.45;;;23.67;;
60416;SDS011;46263;44.726;10.396;2022-11-15T10:20:21;37.85;;;23.33;;
60416;SDS011;46263;44.726;10.396;2022-11-15T10:23:01;38.78;;;23.42;;
60416;SDS011;46263;44.726;10.396;2022-11-15T10:25:34;39.55;;;23.90;;
60416;SDS011;46263;44.726;10.396;2022-11-15T10:30:44;38.33;;;24.27;;
60416;SDS011;46263;44.726;10.396;2022-11-15T10:41:12;39.42;;;23.70;;
60416;SDS011;46263;44.726;10.396;2022-11-15T10:43:38;35.50;;;22.50;;
60416;SDS011;46263;44.726;10.396;2022-11-15T10:48:47;39.20;;;24.48;;
60416;SDS011;46263;44.726;10.396;2022-11-15T10:51:20;39.97;;;24.20;;
60416;SDS011;46263;44.726;10.396;2022-11-15T10:53:51;42.10;;;24.27;;
60416;SDS011;46263;44.726;10.396;2022-11-15T10:56:18;37.25;;;23.80;;
60416;SDS011;46263;44.726;10.396;2022-11-15T10:58:51;40.08;;;23.85;;
60416;SDS011;46263;44.726;10.396;2022-11-15T11:01:23;37.55;;;22.50;;
60416;SDS011;46263;44.726;10.396;2022-11-15T11:06:32;36.15;;;23.17;;
60416;SDS011;46263;44.726;10.396;2022-11-15T11:09:27;38.17;;;23.05;;
60416;SDS011;46263;44.726;10.396;2022-11-15T11:11:55;38.42;;;23.55;;
60416;SDS011;46263;44.726;10.396;2022-11-15T11:14:22;39.53;;;23.08;;
60416;SDS011;46263;44.726;10.396;2022-11-15T11:16:54;38.90;;;23.95;;
60416;SDS011;46263;44.726;10.396;2022-11-15T11:19:31;39.80;;;23.20;;
60416;SDS011;46263;44.726;10.396;2022-11-15T11:41:06;42.97;;;27.35;;
60416;SDS011;46263;44.726;10.396;2022-11-15T11:44:03;41.38;;;26.55;;
60416;SDS011;46263;44.726;10.396;2022-11-15T11:46:56;41.67;;;25.15;;
60416;SDS011;46263;44.726;10.396;2022-11-15T11:52:33;46.45;;;29.77;;
60416;SDS011;46263;44.726;10.396;2022-11-15T11:55:02;44.65;;;26.73;;
60416;SDS011;46263;44.726;10.396;2022-11-15T11:58:11;38.78;;;25.15;;
60416;SDS011;46263;44.726;10.396;2022-11-15T12:00:40;44.83;;;25.53;;
60416;SDS011;46263;44.726;10.396;2022-11-15T12:06:02;40.88;;;26.33;;
60416;SDS011;46263;44.726;10.396;2022-11-15T12:08:39;43.22;;;26.73;;
60416;SDS011;46263;44.726;10.396;2022-11-15T12:11:24;41.90;;;26.75;;
60416;SDS011;46263;44.726;10.396;2022-11-15T12:14:16;43.65;;;27.33;;
60416;SDS011;46263;44.726;10.396;2022-11-15T12:16:54;44.80;;;27.38;;
60416;SDS011;46263;44.726;10.396;2022-11-15T12:19:19;38.33;;;25.55;;
60416;SDS011;46263;44.726;10.396;2022-11-15T12:24:43;43.70;;;25.48;;
60416;SDS011;46263;44.726;10.396;2022-11-15T12:29:49;38.75;;;23.85;;
60416;SDS011;46263;44.726;10.396;2022-11-15T12:34:50;41.35;;;24.55;;
60416;SDS011;46263;44.726;10.396;2022-11-15T12:42:35;41.88;;;25.27;;
60416;SDS011;46263;44.726;10.396;2022-11-15T12:45:26;40.53;;;24.80;;
60416;SDS011;46263;44.726;10.396;2022-11-15T12:56:35;36.03;;;22.50;;
60416;SDS011;46263;44.726;10.396;2022-11-15T12:58:43;33.13;;;22.02;;
60416;SDS011;46263;44.726;10.396;2022-11-15T13:14:51;36.53;;;22.00;;
60416;SDS011;46263;44.726;10.396;2022-11-15T13:19:48;37.65;;;23.27;;
60416;SDS011;46263;44.726;10.396;2022-11-15T13:30:37;35.70;;;22.08;;
60416;SDS011;46263;44.726;10.396;2022-11-15T13:33:07;39.35;;;22.50;;
60416;SDS011;46263;44.726;10.396;2022-11-15T13:35:38;36.72;;;21.50;;
60416;SDS011;46263;44.726;10.396;2022-11-15T13:38:06;37.50;;;23.15;;
60416;SDS011;46263;44.726;10.396;2022-11-15T13:40:37;34.00;;;20.65;;
60416;SDS011;46263;44.726;10.396;2022-11-15T13:46:03;35.95;;;21.92;;
60416;SDS011;46263;44.726;10.396;2022-11-15T13:48:34;33.80;;;21.20;;
60416;SDS011;46263;44.726;10.396;2022-11-15T13:51:02;37.95;;;22.48;;
60416;SDS011;46263;44.726;10.396;2022-11-15T13:53:31;36.95;;;22.00;;
60416;SDS011;46263;44.726;10.396;2022-11-15T13:55:58;33.72;;;20.23;;
60416;SDS011;46263;44.726;10.396;2022-11-15T13:58:24;34.90;;;21.90;;
60416;SDS011;46263;44.726;10.396;2022-11-15T14:00:58;35.05;;;21.33;;
60416;SDS011;46263;44.726;10.396;2022-11-15T14:03:26;33.85;;;20.45;;
60416;SDS011;46263;44.726;10.396;2022-11-15T14:08:28;32.92;;;21.15;;
60416;SDS011;46263;44.726;10.396;2022-11-15T14:11:15;32.17;;;19.40;;
60416;SDS011;46263;44.726;10.396;2022-11-15T14:19:01;36.75;;;22.08;;
60416;SDS011;46263;44.726;10.396;2022-11-15T14:21:27;33.53;;;20.80;;
60416;SDS011;46263;44.726;10.396;2022-11-15T14:23:53;38.03;;;21.98;;
60416;SDS011;46263;44.726;10.396;2022-11-15T14:26:38;30.92;;;18.88;;
60416;SDS011;46263;44.726;10.396;2022-11-15T14:29:23;29.02;;;17.52;;
60416;SDS011;46263;44.726;10.396;2022-11-15T14:31:49;28.30;;;18.63;;
60416;SDS011;46263;44.726;10.396;2022-11-15T14:34:15;32.33;;;19.63;;
60416;SDS011;46263;44.726;10.396;2022-11-15T14:36:40;31.38;;;18.42;;
60416;SDS011;46263;44.726;10.396;2022-11-15T14:39:06;38.97;;;22.90;;
60416;SDS011;46263;44.726;10.396;2022-11-15T14:41:34;32.50;;;20.13;;
60416;SDS011;46263;44.726;10.396;2022-11-15T14:44:03;31.00;;;19.20;;
60416;SDS011;46263;44.726;10.396;2022-11-15T14:46:30;31.95;;;19.42;;
60416;SDS011;46263;44.726;10.396;2022-11-15T14:48:55;29.92;;;18.83;;
60416;SDS011;46263;44.726;10.396;2022-11-15T14:51:21;30.88;;;20.00;;
60416;SDS011;46263;44.726;10.396;2022-11-15T14:53:47;32.13;;;19.90;;
60416;SDS011;46263;44.726;10.396;2022-11-15T14:56:13;31.95;;;19.17;;
60416;SDS011;46263;44.726;10.396;2022-11-15T14:58:39;28.90;;;19.27;;
60416;SDS011;46263;44.726;10.396;2022-11-15T15:01:20;29.38;;;19.65;;
60416;SDS011;46263;44.726;10.396;2022-11-15T15:03:48;29.27;;;18.67;;
60416;SDS011;46263;44.726;10.396;2022-11-15T15:06:16;31.25;;;19.55;;
60416;SDS011;46263;44.726;10.396;2022-11-15T15:08:42;29.85;;;19.08;;
60416;SDS011;46263;44.726;10.396;2022-11-15T15:11:12;29.95;;;18.50;;
60416;SDS011;46263;44.726;10.396;2022-11-15T15:13:41;29.77;;;17.75;;
60416;SDS011;46263;44.726;10.396;2022-11-15T15:16:07;27.98;;;18.05;;
60416;SDS011;46263;44.726;10.396;2022-11-15T15:18:32;25.98;;;16.85;;
60416;SDS011;46263;44.726;10.396;2022-11-15T15:20:58;29.10;;;18.63;;
60416;SDS011;46263;44.726;10.396;2022-11-15T15:23:27;29.35;;;18.08;;
60416;SDS011;46263;44.726;10.396;2022-11-15T15:25:55;30.45;;;18.27;;
60416;SDS011;46263;44.726;10.396;2022-11-15T15:28:21;28.95;;;17.80;;
60416;SDS011;46263;44.726;10.396;2022-11-15T15:30:47;31.90;;;18.45;;
60416;SDS011;46263;44.726;10.396;2022-11-15T15:33:12;32.63;;;18.77;;
60416;SDS011;46263;44.726;10.396;2022-11-15T15:35:38;28.25;;;18.63;;
60416;SDS011;46263;44.726;10.396;2022-11-15T15:38:03;38.70;;;25.08;;
60416;SDS011;46263;44.726;10.396;2022-11-15T15:40:29;28.88;;;19.10;;
60416;SDS011;46263;44.726;10.396;2022-11-15T15:42:57;31.80;;;19.38;;
60416;SDS011;46263;44.726;10.396;2022-11-15T15:45:22;29.73;;;18.67;;
60416;SDS011;46263;44.726;10.396;2022-11-15T15:47:49;30.38;;;19.23;;
60416;SDS011;46263;44.726;10.396;2022-11-15T15:50:24;30.73;;;19.58;;
60416;SDS011;46263;44.726;10.396;2022-11-15T15:52:55;32.40;;;19.75;;
60416;SDS011;46263;44.726;10.396;2022-11-15T15:55:23;32.65;;;20.20;;
60416;SDS011;46263;44.726;10.396;2022-11-15T15:57:48;32.75;;;19.63;;
60416;SDS011;46263;44.726;10.396;2022-11-15T16:00:15;33.30;;;20.10;;
60416;SDS011;46263;44.726;10.396;2022-11-15T16:02:41;30.55;;;18.73;;
60416;SDS011;46263;44.726;10.396;2022-11-15T16:05:07;28.52;;;18.98;;
60416;SDS011;46263;44.726;10.396;2022-11-15T16:07:34;30.80;;;19.60;;
60416;SDS011;46263;44.726;10.396;2022-11-15T16:10:00;29.63;;;19.13;;
60416;SDS011;46263;44.726;10.396;2022-11-15T16:12:31;30.45;;;18.85;;
60416;SDS011;46263;44.726;10.396;2022-11-15T16:15:00;32.50;;;19.08;;
60416;SDS011;46263;44.726;10.396;2022-11-15T16:17:33;29.55;;;19.63;;
60416;SDS011;46263;44.726;10.396;2022-11-15T16:20:03;28.83;;;18.80;;
60416;SDS011;46263;44.726;10.396;2022-11-15T16:22:29;28.77;;;18.15;;
60416;SDS011;46263;44.726;10.396;2022-11-15T16:24:55;32.95;;;20.42;;
60416;SDS011;46263;44.726;10.396;2022-11-15T16:27:21;31.95;;;20.33;;
60416;SDS011;46263;44.726;10.396;2022-11-15T16:29:47;30.60;;;19.27;;
60416;SDS011;46263;44.726;10.396;2022-11-15T16:32:13;29.88;;;18.98;;
60416;SDS011;46263;44.726;10.396;2022-11-15T16:34:39;30.70;;;18.95;;
60416;SDS011;46263;44.726;10.396;2022-11-15T16:37:05;32.45;;;19.95;;
60416;SDS011;46263;44.726;10.396;2022-11-15T16:39:31;32.17;;;19.92;;
60416;SDS011;46263;44.726;10.396;2022-11-15T16:41:57;30.73;;;18.83;;
60416;SDS011;46263;44.726;10.396;2022-11-15T16:44:23;33.50;;;19.40;;